Peacock, Texas
Current Conditions -  °F | °C
As of 3:35 PM on Wednesday 17 Dec 2014 (Local Time) from KSWW Reporting Station
Overcast Overcast  
Wind Chill: 52°   Ceiling: 1600
Heat Index: 52°   Visibility: 10mi
Dew Point: 42°   Wind: 12mph
Humidity: 69%   Direction: 170°S
Pressure: 30.02"   Gusts: NA
Location:  33.1287°N, 100.317°W
Report Text: KSWW 172135Z AUTO 17010KT 10SM OVC016 11/06 A3002 RMK AO2 T01100056
Loading
Personal Weather Stations






























Interactive Weather Map New forecast layout! Learn more

10-Day Weather Forecast

Advertisements
Track Severe Weather on mobile